sensor_id;sensor_type;location;lat;lon;timestamp;temperature;humidity
1165;DHT22;571;50.930;6.926;2023-08-31T02:45:41;14.70;99.90
1165;DHT22;571;50.930;6.926;2023-08-31T02:48:09;14.70;99.90
1165;DHT22;571;50.930;6.926;2023-08-31T02:50:37;14.70;99.90
1165;DHT22;571;50.930;6.926;2023-08-31T02:53:05;14.60;99.90
1165;DHT22;571;50.930;6.926;2023-08-31T02:55:32;14.60;99.90
1165;DHT22;571;50.930;6.926;2023-08-31T02:57:59;14.50;99.90
1165;DHT22;571;50.930;6.926;2023-08-31T03:00:27;14.60;99.90
1165;DHT22;571;50.930;6.926;2023-08-31T03:02:55;14.60;99.90
1165;DHT22;571;50.930;6.926;2023-08-31T03:05:22;14.50;99.90
1165;DHT22;571;50.930;6.926;2023-08-31T03:07:48;14.50;99.90
1165;DHT22;571;50.930;6.926;2023-08-31T03:10:15;14.50;99.90
1165;DHT22;571;50.930;6.926;2023-08-31T03:12:42;14.40;99.90
1165;DHT22;571;50.930;6.926;2023-08-31T03:15:09;14.40;99.90
1165;DHT22;571;50.930;6.926;2023-08-31T03:17:35;14.40;99.90
1165;DHT22;571;50.930;6.926;2023-08-31T03:20:05;14.40;99.90
1165;DHT22;571;50.930;6.926;2023-08-31T03:22:32;14.40;99.90
1165;DHT22;571;50.930;6.926;2023-08-31T03:24:59;14.40;99.90
1165;DHT22;571;50.930;6.926;2023-08-31T03:27:26;14.40;99.90
1165;DHT22;571;50.930;6.926;2023-08-31T03:29:53;14.40;99.90
1165;DHT22;571;50.930;6.926;2023-08-31T03:32:19;14.30;99.90
1165;DHT22;571;50.930;6.926;2023-08-31T03:34:46;14.30;99.90
1165;DHT22;571;50.930;6.926;2023-08-31T03:37:14;14.30;99.90
1165;DHT22;571;50.930;6.926;2023-08-31T03:39:41;14.30;99.90
1165;DHT22;571;50.930;6.926;2023-08-31T03:42:08;14.40;99.90
1165;DHT22;571;50.930;6.926;2023-08-31T03:44:35;14.50;99.90
1165;DHT22;571;50.930;6.926;2023-08-31T03:47:02;14.50;99.90
1165;DHT22;571;50.930;6.926;2023-08-31T03:49:29;14.50;99.90
1165;DHT22;571;50.930;6.926;2023-08-31T03:51:57;14.50;99.90
1165;DHT22;571;50.930;6.926;2023-08-31T03:54:25;14.50;99.90
1165;DHT22;571;50.930;6.926;2023-08-31T03:56:52;14.60;99.90
1165;DHT22;571;50.930;6.926;2023-08-31T03:59:19;14.60;99.90
1165;DHT22;571;50.930;6.926;2023-08-31T04:01:45;14.60;99.90
1165;DHT22;571;50.930;6.926;2023-08-31T04:04:12;14.70;99.90
1165;DHT22;571;50.930;6.926;2023-08-31T04:06:39;14.80;99.90
1165;DHT22;571;50.930;6.926;2023-08-31T04:09:05;14.70;99.90
1165;DHT22;571;50.930;6.926;2023-08-31T04:11:34;14.70;99.90
1165;DHT22;571;50.930;6.926;2023-08-31T04:14:01;14.70;99.90
1165;DHT22;571;50.930;6.926;2023-08-31T04:16:27;14.80;99.90
1165;DHT22;571;50.930;6.926;2023-08-31T04:18:54;14.80;99.90
1165;DHT22;571;50.930;6.926;2023-08-31T04:21:21;14.70;99.90
1165;DHT22;571;50.930;6.926;2023-08-31T04:23:48;14.80;99.90
1165;DHT22;571;50.930;6.926;2023-08-31T04:26:15;14.70;99.90
1165;DHT22;571;50.930;6.926;2023-08-31T04:28:44;14.70;99.90
1165;DHT22;571;50.930;6.926;2023-08-31T04:31:11;14.70;99.90
1165;DHT22;571;50.930;6.926;2023-08-31T04:33:38;14.60;99.90
1165;DHT22;571;50.930;6.926;2023-08-31T04:36:05;14.60;99.90
1165;DHT22;571;50.930;6.926;2023-08-31T04:38:32;14.60;99.90
1165;DHT22;571;50.930;6.926;2023-08-31T04:40:58;14.50;99.90
1165;DHT22;571;50.930;6.926;2023-08-31T04:43:26;14.50;99.90
1165;DHT22;571;50.930;6.926;2023-08-31T04:45:54;14.50;99.90
1165;DHT22;571;50.930;6.926;2023-08-31T04:48:21;14.50;99.90
1165;DHT22;571;50.930;6.926;2023-08-31T04:50:48;14.50;99.90
1165;DHT22;571;50.930;6.926;2023-08-31T04:53:15;14.40;99.90
1165;DHT22;571;50.930;6.926;2023-08-31T04:55:41;14.50;99.90
1165;DHT22;571;50.930;6.926;2023-08-31T04:58:08;14.40;99.90
1165;DHT22;571;50.930;6.926;2023-08-31T05:00:35;14.40;99.90
1165;DHT22;571;50.930;6.926;2023-08-31T05:03:03;14.40;99.90
1165;DHT22;571;50.930;6.926;2023-08-31T05:05:30;14.40;99.90
1165;DHT22;571;50.930;6.926;2023-08-31T05:07:57;14.40;99.90
1165;DHT22;571;50.930;6.926;2023-08-31T05:10:24;14.40;99.90
1165;DHT22;571;50.930;6.926;2023-08-31T05:12:51;14.40;99.90
1165;DHT22;571;50.930;6.926;2023-08-31T05:15:17;14.40;99.90
1165;DHT22;571;50.930;6.926;2023-08-31T05:17:44;14.30;99.90
1165;DHT22;571;50.930;6.926;2023-08-31T05:20:12;14.30;99.90
1165;DHT22;571;50.930;6.926;2023-08-31T05:22:39;14.30;99.90
1165;DHT22;571;50.930;6.926;2023-08-31T05:25:06;14.30;99.90
1165;DHT22;571;50.930;6.926;2023-08-31T05:27:33;14.30;99.90
1165;DHT22;571;50.930;6.926;2023-08-31T05:30:00;14.40;99.90
1165;DHT22;571;50.930;6.926;2023-08-31T05:32:28;14.40;99.90
1165;DHT22;571;50.930;6.926;2023-08-31T05:34:55;14.40;99.90
1165;DHT22;571;50.930;6.926;2023-08-31T05:37:23;14.40;99.90
1165;DHT22;571;50.930;6.926;2023-08-31T05:39:50;14.40;99.90
1165;DHT22;571;50.930;6.926;2023-08-31T05:42:17;14.40;99.90
1165;DHT22;571;50.930;6.926;2023-08-31T05:44:44;14.40;99.90
1165;DHT22;571;50.930;6.926;2023-08-31T05:47:10;14.50;99.90
1165;DHT22;571;50.930;6.926;2023-08-31T05:49:37;14.50;99.90
1165;DHT22;571;50.930;6.926;2023-08-31T05:52:05;14.50;99.90
1165;DHT22;571;50.930;6.926;2023-08-31T05:54:33;14.50;99.90
1165;DHT22;571;50.930;6.926;2023-08-31T05:56:59;14.50;99.90
1165;DHT22;571;50.930;6.926;2023-08-31T05:59:29;14.60;99.90
1165;DHT22;571;50.930;6.926;2023-08-31T06:01:55;14.50;99.90
1165;DHT22;571;50.930;6.926;2023-08-31T06:04:22;14.60;99.90
1165;DHT22;571;50.930;6.926;2023-08-31T06:06:49;14.60;99.90
1165;DHT22;571;50.930;6.926;2023-08-31T06:09:19;14.60;99.90
1165;DHT22;571;50.930;6.926;2023-08-31T06:11:47;14.60;99.90
1165;DHT22;571;50.930;6.926;2023-08-31T06:14:13;14.60;99.90
1165;DHT22;571;50.930;6.926;2023-08-31T06:16:40;14.70;99.90
1165;DHT22;571;50.930;6.926;2023-08-31T06:19:07;14.70;99.90
1165;DHT22;571;50.930;6.926;2023-08-31T06:21:33;14.80;99.90
1165;DHT22;571;50.930;6.926;2023-08-31T06:24:00;14.90;99.90
1165;DHT22;571;50.930;6.926;2023-08-31T06:26:28;14.90;99.90
1165;DHT22;571;50.930;6.926;2023-08-31T06:28:56;14.90;99.90
1165;DHT22;571;50.930;6.926;2023-08-31T06:31:22;14.90;99.90
1165;DHT22;571;50.930;6.926;2023-08-31T06:33:49;15.00;99.90
1165;DHT22;571;50.930;6.926;2023-08-31T06:36:16;15.00;99.90
1165;DHT22;571;50.930;6.926;2023-08-31T06:38:42;15.10;99.90
1165;DHT22;571;50.930;6.926;2023-08-31T06:41:10;15.10;99.90
1165;DHT22;571;50.930;6.926;2023-08-31T06:43:36;15.20;99.90
1165;DHT22;571;50.930;6.926;2023-08-31T06:46:04;15.30;99.90
1165;DHT22;571;50.930;6.926;2023-08-31T06:48:31;15.30;99.90
1165;DHT22;571;50.930;6.926;2023-08-31T06:50:58;15.30;99.90
1165;DHT22;571;50.930;6.926;2023-08-31T06:53:24;15.40;99.90
1165;DHT22;571;50.930;6.926;2023-08-31T06:55:51;15.50;99.90
1165;DHT22;571;50.930;6.926;2023-08-31T06:58:18;15.50;99.90
1165;DHT22;571;50.930;6.926;2023-08-31T07:00:45;15.60;99.90
1165;DHT22;571;50.930;6.926;2023-08-31T07:03:14;15.60;99.90
1165;DHT22;571;50.930;6.926;2023-08-31T07:05:42;15.60;99.90
1165;DHT22;571;50.930;6.926;2023-08-31T07:08:09;15.70;99.90
1165;DHT22;571;50.930;6.926;2023-08-31T07:10:36;15.80;99.90
1165;DHT22;571;50.930;6.926;2023-08-31T07:13:03;15.90;99.90
1165;DHT22;571;50.930;6.926;2023-08-31T07:15:30;15.90;99.90
1165;DHT22;571;50.930;6.926;2023-08-31T07:17:56;16.00;99.90
1165;DHT22;571;50.930;6.926;2023-08-31T07:20:24;16.00;99.90
1165;DHT22;571;50.930;6.926;2023-08-31T07:22:51;16.10;99.90
1165;DHT22;571;50.930;6.926;2023-08-31T07:25:18;16.10;99.90
1165;DHT22;571;50.930;6.926;2023-08-31T07:27:45;16.10;99.90
1165;DHT22;571;50.930;6.926;2023-08-31T07:30:12;16.20;99.90
1165;DHT22;571;50.930;6.926;2023-08-31T07:32:39;16.30;99.90
1165;DHT22;571;50.930;6.926;2023-08-31T07:35:06;16.30;99.90
1165;DHT22;571;50.930;6.926;2023-08-31T07:37:34;16.40;99.90
1165;DHT22;571;50.930;6.926;2023-08-31T07:40:03;16.40;99.90
1165;DHT22;571;50.930;6.926;2023-08-31T07:42:33;16.40;99.90
1165;DHT22;571;50.930;6.926;2023-08-31T07:45:00;16.50;99.90
1165;DHT22;571;50.930;6.926;2023-08-31T07:47:27;16.50;99.90
1165;DHT22;571;50.930;6.926;2023-08-31T07:49:54;16.50;99.90
1165;DHT22;571;50.930;6.926;2023-08-31T07:52:20;16.60;99.90
1165;DHT22;571;50.930;6.926;2023-08-31T07:54:49;16.60;99.60
1165;DHT22;571;50.930;6.926;2023-08-31T07:57:16;16.80;99.20
1165;DHT22;571;50.930;6.926;2023-08-31T07:59:42;16.90;98.50
1165;DHT22;571;50.930;6.926;2023-08-31T08:02:09;16.90;98.70
1165;DHT22;571;50.930;6.926;2023-08-31T08:04:36;17.00;98.90
1165;DHT22;571;50.930;6.926;2023-08-31T08:07:02;17.00;98.70
1165;DHT22;571;50.930;6.926;2023-08-31T08:09:29;17.10;98.80
1165;DHT22;571;50.930;6.926;2023-08-31T08:11:58;17.10;98.90
1165;DHT22;571;50.930;6.926;2023-08-31T08:14:24;17.10;99.20
1165;DHT22;571;50.930;6.926;2023-08-31T08:16:51;17.10;98.70
1165;DHT22;571;50.930;6.926;2023-08-31T08:19:21;17.00;98.90
1165;DHT22;571;50.930;6.926;2023-08-31T08:21:48;17.00;99.00
1165;DHT22;571;50.930;6.926;2023-08-31T08:24:15;17.10;98.70
1165;DHT22;571;50.930;6.926;2023-08-31T08:26:42;17.10;98.70
1165;DHT22;571;50.930;6.926;2023-08-31T08:29:10;17.20;98.60
1165;DHT22;571;50.930;6.926;2023-08-31T08:31:37;17.30;98.10
1165;DHT22;571;50.930;6.926;2023-08-31T08:34:03;17.30;98.10
1165;DHT22;571;50.930;6.926;2023-08-31T08:36:31;17.40;98.30
1165;DHT22;571;50.930;6.926;2023-08-31T08:38:57;17.40;98.10
1165;DHT22;571;50.930;6.926;2023-08-31T08:41:24;17.50;98.00
1165;DHT22;571;50.930;6.926;2023-08-31T08:43:51;17.60;98.00
1165;DHT22;571;50.930;6.926;2023-08-31T08:46:20;17.70;97.30
1165;DHT22;571;50.930;6.926;2023-08-31T08:48:47;17.70;97.20
1165;DHT22;571;50.930;6.926;2023-08-31T08:51:14;17.80;96.50
1165;DHT22;571;50.930;6.926;2023-08-31T08:53:43;17.90;96.40
1165;DHT22;571;50.930;6.926;2023-08-31T08:56:09;18.00;96.10
1165;DHT22;571;50.930;6.926;2023-08-31T08:58:36;18.00;95.90
1165;DHT22;571;50.930;6.926;2023-08-31T09:01:04;18.10;95.90
1165;DHT22;571;50.930;6.926;2023-08-31T09:03:34;18.20;95.20
1165;DHT22;571;50.930;6.926;2023-08-31T09:06:01;18.20;95.00
1165;DHT22;571;50.930;6.926;2023-08-31T09:08:28;18.10;95.30
1165;DHT22;571;50.930;6.926;2023-08-31T09:10:56;18.10;94.80
1165;DHT22;571;50.930;6.926;2023-08-31T09:13:27;18.10;95.20
1165;DHT22;571;50.930;6.926;2023-08-31T09:15:54;18.10;95.60
1165;DHT22;571;50.930;6.926;2023-08-31T09:18:23;18.10;95.90
1165;DHT22;571;50.930;6.926;2023-08-31T09:20:52;18.10;94.50
1165;DHT22;571;50.930;6.926;2023-08-31T09:23:19;18.20;94.90
1165;DHT22;571;50.930;6.926;2023-08-31T09:25:48;18.30;94.40
1165;DHT22;571;50.930;6.926;2023-08-31T09:28:16;18.30;94.80
1165;DHT22;571;50.930;6.926;2023-08-31T09:30:44;18.40;94.00
1165;DHT22;571;50.930;6.926;2023-08-31T09:33:14;18.50;93.80
1165;DHT22;571;50.930;6.926;2023-08-31T09:35:48;18.60;94.30
1165;DHT22;571;50.930;6.926;2023-08-31T09:38:18;18.70;93.50
1165;DHT22;571;50.930;6.926;2023-08-31T09:40:46;18.80;93.10
1165;DHT22;571;50.930;6.926;2023-08-31T09:43:18;18.90;93.20
1165;DHT22;571;50.930;6.926;2023-08-31T09:45:46;19.00;92.40
1165;DHT22;571;50.930;6.926;2023-08-31T09:48:14;19.00;92.80
1165;DHT22;571;50.930;6.926;2023-08-31T09:50:43;19.00;92.80
1165;DHT22;571;50.930;6.926;2023-08-31T09:53:11;19.10;92.80
1165;DHT22;571;50.930;6.926;2023-08-31T09:55:40;19.20;92.40
1165;DHT22;571;50.930;6.926;2023-08-31T09:58:08;19.30;92.60
1165;DHT22;571;50.930;6.926;2023-08-31T10:00:37;19.40;91.60
1165;DHT22;571;50.930;6.926;2023-08-31T10:03:05;19.50;91.20
1165;DHT22;571;50.930;6.926;2023-08-31T10:05:32;19.60;90.50
1165;DHT22;571;50.930;6.926;2023-08-31T10:08:00;19.60;91.10
1165;DHT22;571;50.930;6.926;2023-08-31T10:10:28;19.70;90.70
1165;DHT22;571;50.930;6.926;2023-08-31T10:12:58;19.80;89.80
1165;DHT22;571;50.930;6.926;2023-08-31T10:15:31;19.80;90.20
1165;DHT22;571;50.930;6.926;2023-08-31T10:18:01;19.90;90.00
1165;DHT22;571;50.930;6.926;2023-08-31T10:20:29;19.90;90.00
1165;DHT22;571;50.930;6.926;2023-08-31T10:22:57;20.00;90.20
1165;DHT22;571;50.930;6.926;2023-08-31T10:25:24;20.10;89.50
1165;DHT22;571;50.930;6.926;2023-08-31T10:27:52;20.10;89.50
1165;DHT22;571;50.930;6.926;2023-08-31T10:30:26;20.20;89.30
1165;DHT22;571;50.930;6.926;2023-08-31T10:33:22;20.10;89.80
1165;DHT22;571;50.930;6.926;2023-08-31T10:35:50;20.20;88.60
1165;DHT22;571;50.930;6.926;2023-08-31T10:38:24;20.20;87.20
1165;DHT22;571;50.930;6.926;2023-08-31T10:41:03;20.20;85.90
1165;DHT22;571;50.930;6.926;2023-08-31T10:43:45;20.40;83.80
1165;DHT22;571;50.930;6.926;2023-08-31T10:46:25;20.50;82.60
1165;DHT22;571;50.930;6.926;2023-08-31T10:48:53;20.50;83.10
1165;DHT22;571;50.930;6.926;2023-08-31T10:51:24;20.70;83.00
1165;DHT22;571;50.930;6.926;2023-08-31T10:53:51;20.80;83.50
1165;DHT22;571;50.930;6.926;2023-08-31T10:56:18;20.80;84.70
1165;DHT22;571;50.930;6.926;2023-08-31T10:58:57;20.80;85.10
1165;DHT22;571;50.930;6.926;2023-08-31T11:01:52;21.00;86.30
1165;DHT22;571;50.930;6.926;2023-08-31T11:04:20;21.10;87.20
1165;DHT22;571;50.930;6.926;2023-08-31T11:06:46;21.20;87.90
1165;DHT22;571;50.930;6.926;2023-08-31T11:09:18;21.40;87.10
1165;DHT22;571;50.930;6.926;2023-08-31T11:11:45;21.50;85.90
1165;DHT22;571;50.930;6.926;2023-08-31T11:14:12;21.70;85.20
1165;DHT22;571;50.930;6.926;2023-08-31T11:16:39;21.80;82.30
1165;DHT22;571;50.930;6.926;2023-08-31T11:19:07;22.00;82.10
1165;DHT22;571;50.930;6.926;2023-08-31T11:21:36;22.10;82.30
1165;DHT22;571;50.930;6.926;2023-08-31T11:24:03;22.20;81.40
1165;DHT22;571;50.930;6.926;2023-08-31T11:26:32;22.20;81.00
1165;DHT22;571;50.930;6.926;2023-08-31T11:28:58;22.20;80.70
1165;DHT22;571;50.930;6.926;2023-08-31T11:31:25;22.10;80.70
1165;DHT22;571;50.930;6.926;2023-08-31T11:33:54;22.00;81.00
1165;DHT22;571;50.930;6.926;2023-08-31T11:36:24;21.90;82.00
1165;DHT22;571;50.930;6.926;2023-08-31T11:38:52;21.80;84.00
1165;DHT22;571;50.930;6.926;2023-08-31T11:41:19;21.60;84.50
1165;DHT22;571;50.930;6.926;2023-08-31T11:43:47;21.50;86.00
1165;DHT22;571;50.930;6.926;2023-08-31T11:46:14;21.40;87.00
1165;DHT22;571;50.930;6.926;2023-08-31T11:48:42;21.20;86.80
1165;DHT22;571;50.930;6.926;2023-08-31T11:51:10;21.10;87.90
1165;DHT22;571;50.930;6.926;2023-08-31T11:53:38;21.00;87.80
1165;DHT22;571;50.930;6.926;2023-08-31T11:56:06;20.90;86.90
1165;DHT22;571;50.930;6.926;2023-08-31T11:58:40;20.80;88.10
1165;DHT22;571;50.930;6.926;2023-08-31T12:01:08;20.80;87.80
1165;DHT22;571;50.930;6.926;2023-08-31T12:03:42;20.90;87.10
1165;DHT22;571;50.930;6.926;2023-08-31T12:06:10;21.00;86.20
1165;DHT22;571;50.930;6.926;2023-08-31T12:08:38;21.10;86.30
1165;DHT22;571;50.930;6.926;2023-08-31T12:11:06;21.20;84.00
1165;DHT22;571;50.930;6.926;2023-08-31T12:13:33;21.40;83.80
1165;DHT22;571;50.930;6.926;2023-08-31T12:16:00;21.60;84.20
1165;DHT22;571;50.930;6.926;2023-08-31T12:18:30;21.80;84.70
1165;DHT22;571;50.930;6.926;2023-08-31T12:20:57;22.00;84.20
1165;DHT22;571;50.930;6.926;2023-08-31T12:23:26;22.40;86.20
1165;DHT22;571;50.930;6.926;2023-08-31T12:26:05;22.70;82.00
1165;DHT22;571;50.930;6.926;2023-08-31T12:28:48;22.80;81.00
1165;DHT22;571;50.930;6.926;2023-08-31T12:31:21;22.80;81.40
1165;DHT22;571;50.930;6.926;2023-08-31T12:33:48;22.60;82.70
1165;DHT22;571;50.930;6.926;2023-08-31T12:36:16;22.50;84.50
1165;DHT22;571;50.930;6.926;2023-08-31T12:38:43;22.30;84.00
1165;DHT22;571;50.930;6.926;2023-08-31T12:41:11;22.10;81.90
1165;DHT22;571;50.930;6.926;2023-08-31T12:43:38;21.90;80.10
1165;DHT22;571;50.930;6.926;2023-08-31T12:46:05;21.70;79.20
1165;DHT22;571;50.930;6.926;2023-08-31T12:48:32;21.60;80.00
1165;DHT22;571;50.930;6.926;2023-08-31T12:50:59;21.50;79.10
1165;DHT22;571;50.930;6.926;2023-08-31T12:53:26;21.40;78.30
1165;DHT22;571;50.930;6.926;2023-08-31T12:55:53;21.30;81.40
1165;DHT22;571;50.930;6.926;2023-08-31T12:58:21;21.30;82.20
1165;DHT22;571;50.930;6.926;2023-08-31T13:00:48;21.40;83.20
1165;DHT22;571;50.930;6.926;2023-08-31T13:03:16;21.90;84.40
1165;DHT22;571;50.930;6.926;2023-08-31T13:05:42;22.40;77.80
1165;DHT22;571;50.930;6.926;2023-08-31T13:08:09;22.90;77.80
1165;DHT22;571;50.930;6.926;2023-08-31T13:10:36;23.40;79.80
1165;DHT22;571;50.930;6.926;2023-08-31T13:13:03;24.00;75.80
1165;DHT22;571;50.930;6.926;2023-08-31T13:15:33;24.70;73.90
1165;DHT22;571;50.930;6.926;2023-08-31T13:18:03;25.30;72.00
1165;DHT22;571;50.930;6.926;2023-08-31T13:20:30;25.70;68.70
1165;DHT22;571;50.930;6.926;2023-08-31T13:22:57;25.70;67.30
1165;DHT22;571;50.930;6.926;2023-08-31T13:25:25;25.60;67.00
1165;DHT22;571;50.930;6.926;2023-08-31T13:27:52;25.40;67.60
1165;DHT22;571;50.930;6.926;2023-08-31T13:30:19;25.20;68.90
1165;DHT22;571;50.930;6.926;2023-08-31T13:32:48;24.90;70.30
1165;DHT22;571;50.930;6.926;2023-08-31T13:35:16;24.80;70.60
1165;DHT22;571;50.930;6.926;2023-08-31T13:37:42;24.60;68.60
1165;DHT22;571;50.930;6.926;2023-08-31T13:40:10;24.40;70.50
1165;DHT22;571;50.930;6.926;2023-08-31T13:42:37;24.20;72.20
1165;DHT22;571;50.930;6.926;2023-08-31T13:45:06;24.00;72.70
1165;DHT22;571;50.930;6.926;2023-08-31T13:47:33;23.80;73.40
1165;DHT22;571;50.930;6.926;2023-08-31T13:50:01;23.70;74.60
1165;DHT22;571;50.930;6.926;2023-08-31T13:52:29;23.70;75.10
1165;DHT22;571;50.930;6.926;2023-08-31T13:54:56;23.80;75.60
1165;DHT22;571;50.930;6.926;2023-08-31T13:57:23;24.00;73.90
1165;DHT22;571;50.930;6.926;2023-08-31T13:59:49;24.10;73.50
1165;DHT22;571;50.930;6.926;2023-08-31T14:02:17;24.50;68.40
1165;DHT22;571;50.930;6.926;2023-08-31T14:04:46;25.10;69.80
1165;DHT22;571;50.930;6.926;2023-08-31T14:07:18;25.60;69.40
1165;DHT22;571;50.930;6.926;2023-08-31T14:09:48;26.10;67.50
1165;DHT22;571;50.930;6.926;2023-08-31T14:12:16;26.40;67.20
1165;DHT22;571;50.930;6.926;2023-08-31T14:14:42;26.80;65.80
1165;DHT22;571;50.930;6.926;2023-08-31T14:17:11;27.00;64.80
1165;DHT22;571;50.930;6.926;2023-08-31T14:19:38;27.10;63.60
1165;DHT22;571;50.930;6.926;2023-08-31T14:22:05;27.20;63.60
1165;DHT22;571;50.930;6.926;2023-08-31T14:24:33;27.00;62.70
1165;DHT22;571;50.930;6.926;2023-08-31T14:27:00;27.00;63.80
1165;DHT22;571;50.930;6.926;2023-08-31T14:29:27;27.20;62.50
1165;DHT22;571;50.930;6.926;2023-08-31T14:31:57;27.60;60.90
1165;DHT22;571;50.930;6.926;2023-08-31T14:34:24;28.10;58.70
1165;DHT22;571;50.930;6.926;2023-08-31T14:36:52;28.60;56.50
1165;DHT22;571;50.930;6.926;2023-08-31T14:39:37;29.00;56.10
1165;DHT22;571;50.930;6.926;2023-08-31T14:42:33;29.30;55.30
1165;DHT22;571;50.930;6.926;2023-08-31T14:45:03;29.70;53.50
1165;DHT22;571;50.930;6.926;2023-08-31T14:47:43;30.00;53.40
1165;DHT22;571;50.930;6.926;2023-08-31T14:53:25;30.70;51.80
1165;DHT22;571;50.930;6.926;2023-08-31T14:56:04;30.70;48.70
1165;DHT22;571;50.930;6.926;2023-08-31T14:59:10;30.40;50.20
1165;DHT22;571;50.930;6.926;2023-08-31T15:01:37;30.20;49.20
1165;DHT22;571;50.930;6.926;2023-08-31T15:04:18;30.00;49.10
1165;DHT22;571;50.930;6.926;2023-08-31T15:06:53;29.40;49.60
1165;DHT22;571;50.930;6.926;2023-08-31T15:16:02;27.20;50.50
1165;DHT22;571;50.930;6.926;2023-08-31T15:18:35;26.70;50.80
1165;DHT22;571;50.930;6.926;2023-08-31T15:21:10;26.30;52.40
1165;DHT22;571;50.930;6.926;2023-08-31T15:23:42;25.90;53.10
1165;DHT22;571;50.930;6.926;2023-08-31T15:26:13;25.60;54.30
1165;DHT22;571;50.930;6.926;2023-08-31T15:28:45;25.50;55.00
1165;DHT22;571;50.930;6.926;2023-08-31T15:31:21;25.40;55.90
1165;DHT22;571;50.930;6.926;2023-08-31T15:33:56;25.40;56.60
1165;DHT22;571;50.930;6.926;2023-08-31T15:39:21;25.10;57.50
1165;DHT22;571;50.930;6.926;2023-08-31T15:41:54;24.90;56.30
1165;DHT22;571;50.930;6.926;2023-08-31T15:44:28;24.60;56.50
1165;DHT22;571;50.930;6.926;2023-08-31T15:47:22;24.40;57.30
1165;DHT22;571;50.930;6.926;2023-08-31T15:49:59;24.10;57.20
1165;DHT22;571;50.930;6.926;2023-08-31T15:52:34;24.10;58.20
1165;DHT22;571;50.930;6.926;2023-08-31T15:55:17;23.90;60.00
1165;DHT22;571;50.930;6.926;2023-08-31T15:57:53;23.70;60.10
1165;DHT22;571;50.930;6.926;2023-08-31T16:00:28;23.70;60.10
1165;DHT22;571;50.930;6.926;2023-08-31T16:03:04;23.60;60.60
1165;DHT22;571;50.930;6.926;2023-08-31T16:05:34;23.60;67.50
1165;DHT22;571;50.930;6.926;2023-08-31T16:08:02;23.60;61.90
1165;DHT22;571;50.930;6.926;2023-08-31T16:10:30;23.60;61.60
1165;DHT22;571;50.930;6.926;2023-08-31T16:12:57;23.60;62.10
1165;DHT22;571;50.930;6.926;2023-08-31T16:15:30;23.60;63.40
1165;DHT22;571;50.930;6.926;2023-08-31T16:17:58;23.50;62.50
1165;DHT22;571;50.930;6.926;2023-08-31T16:23:55;23.20;63.30
1165;DHT22;571;50.930;6.926;2023-08-31T16:26:47;23.20;63.90
1165;DHT22;571;50.930;6.926;2023-08-31T16:29:52;23.10;64.10
1165;DHT22;571;50.930;6.926;2023-08-31T16:36:47;22.90;64.60
1165;DHT22;571;50.930;6.926;2023-08-31T17:41:24;21.80;75.00
1165;DHT22;571;50.930;6.926;2023-08-31T17:44:19;21.70;74.60
1165;DHT22;571;50.930;6.926;2023-08-31T17:46:54;21.60;74.90
1165;DHT22;571;50.930;6.926;2023-08-31T17:49:33;21.50;74.40
1165;DHT22;571;50.930;6.926;2023-08-31T17:52:13;21.50;74.80
1165;DHT22;571;50.930;6.926;2023-08-31T17:54:46;21.40;75.20
1165;DHT22;571;50.930;6.926;2023-08-31T17:57:15;21.30;76.20
1165;DHT22;571;50.930;6.926;2023-08-31T17:59:50;21.30;76.70
1165;DHT22;571;50.930;6.926;2023-08-31T18:02:42;21.20;76.30
1165;DHT22;571;50.930;6.926;2023-08-31T18:08:52;21.10;76.60
1165;DHT22;571;50.930;6.926;2023-08-31T18:11:53;21.00;76.80
1165;DHT22;571;50.930;6.926;2023-08-31T18:14:25;20.90;77.50
1165;DHT22;571;50.930;6.926;2023-08-31T18:17:01;20.90;78.10
1165;DHT22;571;50.930;6.926;2023-08-31T18:19:45;20.90;78.30
1165;DHT22;571;50.930;6.926;2023-08-31T18:22:41;20.80;78.40
1165;DHT22;571;50.930;6.926;2023-08-31T18:25:37;20.70;79.10
1165;DHT22;571;50.930;6.926;2023-08-31T18:31:41;20.60;80.90
1165;DHT22;571;50.930;6.926;2023-08-31T18:34:14;20.60;81.60
1165;DHT22;571;50.930;6.926;2023-08-31T18:36:55;20.40;81.70
1165;DHT22;571;50.930;6.926;2023-08-31T18:44:00;20.30;82.50
1165;DHT22;571;50.930;6.926;2023-08-31T18:46:42;20.20;83.50
1165;DHT22;571;50.930;6.926;2023-08-31T18:52:49;20.00;84.20
1165;DHT22;571;50.930;6.926;2023-08-31T18:55:42;20.00;85.20
1165;DHT22;571;50.930;6.926;2023-08-31T18:58:14;20.00;85.70
1165;DHT22;571;50.930;6.926;2023-08-31T19:00:51;20.00;85.70
1165;DHT22;571;50.930;6.926;2023-08-31T19:03:55;19.80;86.00
1165;DHT22;571;50.930;6.926;2023-08-31T19:06:34;19.80;87.00
1165;DHT22;571;50.930;6.926;2023-08-31T19:09:12;19.70;87.20
1165;DHT22;571;50.930;6.926;2023-08-31T19:11:54;19.70;88.40
1165;DHT22;571;50.930;6.926;2023-08-31T19:14:30;19.60;88.10
1165;DHT22;571;50.930;6.926;2023-08-31T19:17:25;19.60;88.70
1165;DHT22;571;50.930;6.926;2023-08-31T19:20:22;19.60;88.90
1165;DHT22;571;50.930;6.926;2023-08-31T19:22:52;19.50;88.90
1165;DHT22;571;50.930;6.926;2023-08-31T19:25:25;19.50;88.80
1165;DHT22;571;50.930;6.926;2023-08-31T19:28:39;19.40;89.60
1165;DHT22;571;50.930;6.926;2023-08-31T19:31:25;19.30;89.80
1165;DHT22;571;50.930;6.926;2023-08-31T19:34:26;19.30;89.70
1165;DHT22;571;50.930;6.926;2023-08-31T19:37:14;19.30;90.10
1165;DHT22;571;50.930;6.926;2023-08-31T19:39:46;19.30;90.30
1165;DHT22;571;50.930;6.926;2023-08-31T19:45:52;19.00;90.80
1165;DHT22;571;50.930;6.926;2023-08-31T19:48:36;19.10;90.80
1165;DHT22;571;50.930;6.926;2023-08-31T19:51:09;19.00;90.40
1165;DHT22;571;50.930;6.926;2023-08-31T19:53:45;19.00;90.90
1165;DHT22;571;50.930;6.926;2023-08-31T19:56:32;18.90;91.10
1165;DHT22;571;50.930;6.926;2023-08-31T19:59:08;18.90;91.50
1165;DHT22;571;50.930;6.926;2023-08-31T20:01:37;18.80;91.40
1165;DHT22;571;50.930;6.926;2023-08-31T20:04:29;18.80;91.50
1165;DHT22;571;50.930;6.926;2023-08-31T20:06:58;18.70;91.60
1165;DHT22;571;50.930;6.926;2023-08-31T20:09:34;18.70;91.70
1165;DHT22;571;50.930;6.926;2023-08-31T20:12:05;18.50;91.80
1165;DHT22;571;50.930;6.926;2023-08-31T20:15:12;18.60;92.00
1165;DHT22;571;50.930;6.926;2023-08-31T20:17:58;18.50;92.30
1165;DHT22;571;50.930;6.926;2023-08-31T20:20:47;18.50;92.60
1165;DHT22;571;50.930;6.926;2023-08-31T20:23:25;18.50;92.70
1165;DHT22;571;50.930;6.926;2023-08-31T20:26:02;18.40;92.60
1165;DHT22;571;50.930;6.926;2023-08-31T20:28:35;18.40;92.60
1165;DHT22;571;50.930;6.926;2023-08-31T20:31:16;18.30;92.90
1165;DHT22;571;50.930;6.926;2023-08-31T20:33:54;18.30;92.80
1165;DHT22;571;50.930;6.926;2023-08-31T20:36:27;18.30;93.40
1165;DHT22;571;50.930;6.926;2023-08-31T20:39:12;18.20;93.20
1165;DHT22;571;50.930;6.926;2023-08-31T20:59:01;17.90;94.90
1165;DHT22;571;50.930;6.926;2023-08-31T21:05:57;17.80;95.40
1165;DHT22;571;50.930;6.926;2023-08-31T21:09:01;17.80;95.50
1165;DHT22;571;50.930;6.926;2023-08-31T21:12:08;17.70;95.60
1165;DHT22;571;50.930;6.926;2023-08-31T21:28:21;17.50;96.50
1165;DHT22;571;50.930;6.926;2023-08-31T21:31:00;17.50;96.60
1165;DHT22;571;50.930;6.926;2023-08-31T21:33:46;17.40;96.70
1165;DHT22;571;50.930;6.926;2023-08-31T21:36:52;17.40;96.70
1165;DHT22;571;50.930;6.926;2023-08-31T21:39:39;17.40;96.70
1165;DHT22;571;50.930;6.926;2023-08-31T21:42:10;17.30;96.70
1165;DHT22;571;50.930;6.926;2023-08-31T21:51:43;17.30;96.90